createdAt,value
2019-03-09T00:00:58.243Z,99523.91
2019-03-09T00:03:34.314Z,99523.99
2019-03-09T00:06:10.050Z,99528.85
2019-03-09T00:08:45.913Z,99532.34
2019-03-09T00:11:22.901Z,99532.81
2019-03-09T00:13:58.665Z,99539.49
2019-03-09T00:16:34.496Z,99543.84
2019-03-09T00:19:10.349Z,99539.83
2019-03-09T00:21:46.206Z,99538.50
2019-03-09T00:24:26.773Z,99531.96
2019-03-09T00:27:07.231Z,99536.25
2019-03-09T00:30:00.297Z,99536.39
2019-03-09T00:32:36.137Z,99528.39
2019-03-09T00:35:12.003Z,99530.83
2019-03-09T00:37:47.743Z,99534.98
2019-03-09T00:40:23.657Z,99532.70
2019-03-09T00:42:59.459Z,99541.39
2019-03-09T00:45:35.309Z,99537.77
2019-03-09T00:48:11.160Z,99534.94
2019-03-09T00:50:47.025Z,99535.21
2019-03-09T00:53:22.872Z,99535.68
2019-03-09T00:55:58.618Z,99535.02
2019-03-09T00:58:34.595Z,99534.94
2019-03-09T01:01:10.445Z,99532.05
2019-03-09T01:03:46.279Z,99525.45
2019-03-09T01:06:22.138Z,99526.82
2019-03-09T01:08:58.101Z,99527.34
2019-03-09T01:11:33.961Z,99529.60
2019-03-09T01:14:09.941Z,99524.79
2019-03-09T01:16:45.765Z,99524.52
2019-03-09T01:19:21.618Z,99520.61
2019-03-09T01:22:08.225Z,99520.36
2019-03-09T01:25:01.887Z,99518.52
2019-03-09T01:27:55.461Z,99515.27
2019-03-09T01:30:31.211Z,99514.94
2019-03-09T01:33:07.079Z,99516.91
2019-03-09T01:35:43.343Z,99518.80
2019-03-09T01:38:19.082Z,99505.42
2019-03-09T01:40:54.829Z,99504.09
2019-03-09T01:43:30.698Z,99496.65
2019-03-09T01:46:06.640Z,99485.48
2019-03-09T01:48:42.492Z,99478.17
2019-03-09T01:51:18.364Z,99475.87
2019-03-09T01:53:54.128Z,99466.69
2019-03-09T01:56:29.957Z,99461.36
2019-03-09T01:59:05.814Z,99458.67
2019-03-09T02:01:41.770Z,99457.07
2019-03-09T02:04:17.631Z,99455.23
2019-03-09T02:06:53.478Z,99451.61
2019-03-09T02:09:29.324Z,99458.53
2019-03-09T02:12:05.398Z,99458.02
2019-03-09T02:14:41.237Z,99459.57
2019-03-09T02:17:17.509Z,99458.39
2019-03-09T02:19:53.363Z,99445.67
2019-03-09T02:22:29.521Z,99449.48
2019-03-09T02:25:07.844Z,99432.66
2019-03-09T02:27:43.693Z,99440.77
2019-03-09T02:30:19.853Z,99433.59
2019-03-09T02:32:55.714Z,99428.83
2019-03-09T02:35:31.563Z,99426.58
2019-03-09T02:38:14.983Z,99419.72
2019-03-09T02:40:50.942Z,99419.58
2019-03-09T02:43:26.808Z,99426.88
2019-03-09T02:46:02.653Z,99425.89
2019-03-09T02:48:38.517Z,99425.36
2019-03-09T02:51:14.364Z,99411.96
2019-03-09T02:53:50.223Z,99416.10
2019-03-09T02:56:26.065Z,99415.05
2019-03-09T02:59:01.928Z,99413.11
2019-03-09T03:01:39.309Z,99415.31
2019-03-09T03:04:15.164Z,99415.75
2019-03-09T03:06:51.233Z,99406.13
2019-03-09T03:09:27.080Z,99405.33
2019-03-09T03:12:02.957Z,99396.62
2019-03-09T03:14:38.792Z,99406.66
2019-03-09T03:17:14.652Z,99404.10
2019-03-09T03:19:51.618Z,99404.95
2019-03-09T03:22:27.894Z,99405.86
2019-03-09T03:25:04.753Z,99404.86
2019-03-09T03:27:40.519Z,99399.05
2019-03-09T03:30:16.371Z,99390.28
2019-03-09T03:32:53.785Z,99387.70
2019-03-09T03:35:29.817Z,99389.70
2019-03-09T03:38:05.675Z,99386.14
2019-03-09T03:40:41.839Z,99384.20
2019-03-09T03:43:17.682Z,99376.45
2019-03-09T03:45:54.562Z,99373.08
2019-03-09T03:48:30.437Z,99363.53
2019-03-09T03:51:06.280Z,99362.09
2019-03-09T03:53:42.139Z,99353.37
2019-03-09T03:56:17.985Z,99357.25
2019-03-09T03:58:53.814Z,99359.83
2019-03-09T04:01:29.693Z,99354.92
2019-03-09T04:04:05.550Z,99350.96
2019-03-09T04:06:41.508Z,99351.22
2019-03-09T04:09:17.989Z,99351.69
2019-03-09T04:11:53.824Z,99344.98
2019-03-09T04:14:29.683Z,99345.46
2019-03-09T04:17:05.539Z,99333.52
2019-03-09T04:19:41.393Z,99334.83
2019-03-09T04:22:17.241Z,99321.84
2019-03-09T04:24:53.312Z,99319.89
2019-03-09T04:27:29.045Z,99313.17
2019-03-09T04:30:07.831Z,99318.77
2019-03-09T04:32:43.543Z,99316.34
2019-03-09T04:35:19.377Z,99313.53
2019-03-09T04:37:55.222Z,99307.61
2019-03-09T04:40:31.096Z,99298.27
2019-03-09T04:43:06.827Z,99293.25
2019-03-09T04:45:43.002Z,99289.28
2019-03-09T04:48:18.853Z,99283.57
2019-03-09T04:50:54.741Z,99277.29
2019-03-09T04:53:30.651Z,99273.23
2019-03-09T04:56:06.414Z,99260.83
2019-03-09T04:58:42.272Z,99252.91
2019-03-09T05:01:18.121Z,99246.30
2019-03-09T05:04:16.390Z,99247.95
2019-03-09T05:06:52.254Z,99240.28
2019-03-09T05:09:54.016Z,99247.20
2019-03-09T05:12:30.171Z,99251.27
2019-03-09T05:15:08.991Z,99255.59
2019-03-09T05:17:44.844Z,99258.02
2019-03-09T05:20:21.328Z,99248.16
2019-03-09T05:22:57.074Z,99241.55
2019-03-09T05:25:33.127Z,99243.19
2019-03-09T05:28:08.976Z,99236.67
2019-03-09T05:30:46.329Z,99235.67
2019-03-09T05:33:22.118Z,99232.63
2019-03-09T05:35:57.977Z,99228.06
2019-03-09T05:38:33.842Z,99233.09
2019-03-09T05:41:09.693Z,99231.87
2019-03-09T05:43:45.551Z,99225.89
2019-03-09T05:46:21.366Z,99215.39
2019-03-09T05:48:57.353Z,99215.47
2019-03-09T05:51:33.219Z,99214.09
2019-03-09T05:54:09.058Z,99210.98
2019-03-09T05:56:44.917Z,99213.08
2019-03-09T05:59:20.766Z,99199.67
2019-03-09T06:01:56.625Z,99206.97
2019-03-09T06:04:32.366Z,99200.98
2019-03-09T06:07:08.237Z,99199.43
2019-03-09T06:09:44.079Z,99188.62
2019-03-09T06:12:20.036Z,99192.42
2019-03-09T06:14:55.895Z,99180.77
2019-03-09T06:17:31.736Z,99188.06
2019-03-09T06:20:07.612Z,99185.73
2019-03-09T06:22:43.456Z,99181.52
2019-03-09T06:25:19.722Z,99175.05
2019-03-09T06:27:55.567Z,99172.55
2019-03-09T06:30:31.435Z,99170.44
2019-03-09T06:33:22.137Z,99169.36
2019-03-09T06:36:23.688Z,99176.88
2019-03-09T06:39:02.077Z,99169.90
2019-03-09T06:41:51.677Z,99158.30
2019-03-09T06:44:27.537Z,99147.63
2019-03-09T06:47:03.391Z,99148.23
2019-03-09T06:49:39.239Z,99149.43
2019-03-09T06:52:15.097Z,99143.47
2019-03-09T06:54:51.047Z,99144.34
2019-03-09T06:57:26.781Z,99139.41
2019-03-09T07:00:17.604Z,99135.08
2019-03-09T07:02:53.554Z,99126.75
2019-03-09T07:05:29.420Z,99124.14
2019-03-09T07:08:05.365Z,99115.59
2019-03-09T07:10:41.224Z,99100.83
2019-03-09T07:13:17.092Z,99105.66
2019-03-09T07:15:52.928Z,99100.08
2019-03-09T07:18:28.822Z,99086.98
2019-03-09T07:21:05.763Z,99087.55
2019-03-09T07:23:41.619Z,99076.39
2019-03-09T07:26:17.469Z,99077.47
2019-03-09T07:28:53.334Z,99069.39
2019-03-09T07:31:29.183Z,99068.91
2019-03-09T07:34:22.142Z,99060.87
2019-03-09T07:36:57.997Z,99054.91
2019-03-09T07:39:33.848Z,99065.20
2019-03-09T07:42:09.690Z,99067.36
2019-03-09T07:44:45.559Z,99062.61
2019-03-09T07:47:21.414Z,99066.85
2019-03-09T07:49:57.159Z,99062.84
2019-03-09T07:52:35.006Z,99057.82
2019-03-09T07:55:12.641Z,99057.82
2019-03-09T07:57:48.516Z,99048.28
2019-03-09T08:00:24.361Z,99058.00
2019-03-09T08:03:00.105Z,99059.42
2019-03-09T08:05:35.963Z,99057.34
2019-03-09T08:08:11.816Z,99053.92
2019-03-09T08:10:47.687Z,99060.36
2019-03-09T08:13:23.488Z,99060.32
2019-03-09T08:15:59.284Z,99037.07
2019-03-09T08:18:35.283Z,99038.33
2019-03-09T08:21:10.969Z,99029.56
2019-03-09T08:23:46.776Z,99027.39
2019-03-09T08:26:22.524Z,99028.84
2019-03-09T08:28:59.487Z,99019.67
2019-03-09T08:31:35.159Z,99017.97
2019-03-09T08:34:10.965Z,99011.58
2019-03-09T08:36:46.643Z,98997.42
2019-03-09T08:39:23.490Z,99020.11
2019-03-09T08:41:59.229Z,99004.84
2019-03-09T08:44:34.989Z,98995.13
2019-03-09T08:47:10.744Z,98996.53
2019-03-09T08:49:46.578Z,98985.03
2019-03-09T08:52:22.343Z,98984.84
2019-03-09T08:54:58.191Z,98974.72
2019-03-09T08:57:33.952Z,98968.39
2019-03-09T09:00:15.096Z,98974.07
2019-03-09T09:02:50.951Z,98978.61
2019-03-09T09:05:26.734Z,98963.84
2019-03-09T09:08:03.831Z,98970.34
2019-03-09T09:10:40.024Z,98956.45
2019-03-09T09:13:15.773Z,98947.39
2019-03-09T09:15:51.855Z,98935.92
2019-03-09T09:18:27.652Z,98927.57
2019-03-09T09:21:03.378Z,98931.80
2019-03-09T09:23:39.160Z,98925.34
2019-03-09T09:26:14.966Z,98923.55
2019-03-09T09:28:50.761Z,98915.11
2019-03-09T09:31:26.550Z,98923.39
2019-03-09T09:34:02.372Z,98914.94
2019-03-09T09:36:38.238Z,98908.94
2019-03-09T09:39:13.989Z,98897.95
2019-03-09T09:41:49.756Z,98894.28
2019-03-09T09:44:25.581Z,98890.36
2019-03-09T09:47:01.363Z,98885.02
2019-03-09T09:49:37.433Z,98877.98
2019-03-09T09:52:13.204Z,98868.64
2019-03-09T09:54:49.204Z,98866.98
2019-03-09T09:57:24.994Z,98872.50
2019-03-09T10:00:01.274Z,98871.99
2019-03-09T10:02:37.143Z,98874.94
2019-03-09T10:05:13.074Z,98870.64
2019-03-09T10:07:48.880Z,98855.27
2019-03-09T10:10:24.911Z,98866.83
2019-03-09T10:13:00.700Z,98867.65
2019-03-09T10:15:36.429Z,98879.85
2019-03-09T10:18:12.509Z,98875.70
2019-03-09T10:20:48.255Z,98877.47
2019-03-09T10:23:24.318Z,98874.47
2019-03-09T10:26:00.120Z,98876.97
2019-03-09T10:28:35.888Z,98864.49
2019-03-09T10:31:11.699Z,98862.77
2019-03-09T10:33:47.443Z,98857.06
2019-03-09T10:36:23.350Z,98856.13
2019-03-09T10:38:59.178Z,98863.39
2019-03-09T10:41:35.356Z,98858.66
2019-03-09T10:44:11.105Z,98850.06
2019-03-09T10:46:48.035Z,98844.49
2019-03-09T10:49:23.872Z,98854.67
2019-03-09T10:51:59.561Z,98853.50
2019-03-09T10:54:36.423Z,98862.97
2019-03-09T10:57:13.138Z,98863.48
2019-03-09T10:59:49.045Z,98866.20
2019-03-09T11:02:24.900Z,98836.16
2019-03-09T11:05:00.965Z,98859.44
2019-03-09T11:07:36.749Z,98841.92
2019-03-09T11:10:12.661Z,98846.06
2019-03-09T11:12:48.403Z,98840.54
2019-03-09T11:15:24.462Z,98844.30
2019-03-09T11:18:00.881Z,98843.86
2019-03-09T11:20:36.875Z,98840.20
2019-03-09T11:23:12.577Z,98838.77
2019-03-09T11:25:48.301Z,98835.64
2019-03-09T11:28:24.090Z,98838.23
2019-03-09T11:30:59.879Z,98851.84
2019-03-09T11:33:35.757Z,98853.69
2019-03-09T11:36:11.536Z,98850.59
2019-03-09T11:38:47.368Z,98856.91
2019-03-09T11:41:23.213Z,98859.72
2019-03-09T11:43:59.179Z,98861.99
2019-03-09T11:46:37.165Z,98862.59
2019-03-09T11:49:12.515Z,98847.79
2019-03-09T11:51:48.372Z,98854.45
2019-03-09T11:54:24.234Z,98848.52
2019-03-09T11:57:00.085Z,98865.67
2019-03-09T11:59:35.933Z,98858.87
2019-03-09T12:02:11.780Z,98851.38
2019-03-09T12:04:47.636Z,98852.95
2019-03-09T12:07:23.496Z,98855.59
2019-03-09T12:09:59.341Z,98845.88
2019-03-09T12:12:35.100Z,98867.41
2019-03-09T12:15:12.878Z,98874.41
2019-03-09T12:17:50.486Z,98848.64
2019-03-09T12:20:27.782Z,98843.56
2019-03-09T12:23:18.787Z,98877.48
2019-03-09T12:25:54.840Z,98839.87
2019-03-09T12:28:30.702Z,98843.88
2019-03-09T12:31:06.568Z,98847.02
2019-03-09T12:33:42.414Z,98852.69
2019-03-09T12:36:18.156Z,98842.41
2019-03-09T12:38:54.013Z,98831.76
2019-03-09T12:41:29.866Z,98836.16
2019-03-09T12:44:05.724Z,98826.87
2019-03-09T12:46:41.683Z,98824.07
2019-03-09T12:49:17.535Z,98812.58
2019-03-09T12:51:53.387Z,98817.94
2019-03-09T12:54:29.242Z,98805.45
2019-03-09T12:57:05.098Z,98799.67
2019-03-09T12:59:42.182Z,98800.12
2019-03-09T13:02:18.042Z,98786.59
2019-03-09T13:04:53.893Z,98787.07
2019-03-09T13:07:29.645Z,98797.48
2019-03-09T13:10:07.602Z,98793.72
2019-03-09T13:12:43.403Z,98792.74
2019-03-09T13:15:19.758Z,98795.17
2019-03-09T13:17:55.490Z,98790.92
2019-03-09T13:20:31.269Z,98792.76
2019-03-09T13:23:07.110Z,98786.45
2019-03-09T13:25:42.978Z,98791.42
2019-03-09T13:28:18.764Z,98781.02
2019-03-09T13:30:54.587Z,98791.92
2019-03-09T13:33:30.438Z,98779.80
2019-03-09T13:36:06.482Z,98772.28
2019-03-09T13:38:42.351Z,98781.98
2019-03-09T13:41:18.203Z,98781.60
2019-03-09T13:43:54.050Z,98762.35
2019-03-09T13:46:29.903Z,98756.77
2019-03-09T13:49:05.754Z,98755.31
2019-03-09T13:51:41.506Z,98770.09
2019-03-09T13:54:17.357Z,98766.09
2019-03-09T13:56:53.223Z,98761.74
2019-03-09T13:59:29.074Z,98775.42
2019-03-09T14:02:04.825Z,98759.66
2019-03-09T14:04:40.689Z,98753.59
2019-03-09T14:07:16.531Z,98757.59
2019-03-09T14:09:52.386Z,98749.21
2019-03-09T14:12:28.246Z,98745.69
2019-03-09T14:15:07.682Z,98747.00
2019-03-09T14:17:43.747Z,98732.69
2019-03-09T14:20:20.716Z,98739.93
2019-03-09T14:22:56.571Z,98732.92
2019-03-09T14:25:32.432Z,98737.64
2019-03-09T14:28:08.283Z,98743.36
2019-03-09T14:30:44.144Z,98741.41
2019-03-09T14:33:20.810Z,98744.83
2019-03-09T14:35:56.668Z,98719.26
2019-03-09T14:38:32.514Z,98738.27
2019-03-09T14:41:08.378Z,98745.42
2019-03-09T14:43:44.224Z,98730.27
2019-03-09T14:46:20.075Z,98740.85
2019-03-09T14:48:55.949Z,98729.58
2019-03-09T14:51:31.790Z,98731.38
2019-03-09T14:54:07.528Z,98719.60
2019-03-09T14:56:44.406Z,98715.52
2019-03-09T14:59:20.271Z,98704.70
2019-03-09T15:01:56.135Z,98703.75
2019-03-09T15:04:31.982Z,98701.08
2019-03-09T15:07:08.547Z,98692.35
2019-03-09T15:09:44.475Z,98670.53
2019-03-09T15:12:20.260Z,98681.69
2019-03-09T15:14:56.104Z,98677.08
2019-03-09T15:17:33.510Z,98671.98
2019-03-09T15:20:16.936Z,98677.08
2019-03-09T15:22:52.822Z,98667.75
2019-03-09T15:25:28.650Z,98669.45
2019-03-09T15:28:04.502Z,98667.89
2019-03-09T15:30:40.646Z,98650.33
2019-03-09T15:33:16.505Z,98642.09
2019-03-09T15:35:52.364Z,98646.09
2019-03-09T15:38:28.470Z,98647.28
2019-03-09T15:41:04.748Z,98642.45
2019-03-09T15:43:41.051Z,98645.34
2019-03-09T15:46:16.901Z,98640.04
2019-03-09T15:48:52.658Z,98631.32
2019-03-09T15:51:28.530Z,98627.09
2019-03-09T15:54:04.262Z,98634.27
2019-03-09T15:56:40.117Z,98632.33
2019-03-09T15:59:15.870Z,98608.60
2019-03-09T16:01:51.730Z,98630.91
2019-03-09T16:04:27.571Z,98612.39
2019-03-09T16:07:07.327Z,98622.82
2019-03-09T16:09:43.166Z,98621.72
2019-03-09T16:12:18.919Z,98603.81
2019-03-09T16:14:54.784Z,98610.00
2019-03-09T16:17:32.330Z,98604.47
2019-03-09T16:20:11.091Z,98591.63
2019-03-09T16:22:46.848Z,98584.50
2019-03-09T16:25:23.820Z,98588.63
2019-03-09T16:28:00.147Z,98573.39
2019-03-09T16:30:36.158Z,98564.59
2019-03-09T16:33:12.973Z,98569.90
2019-03-09T16:35:49.715Z,98569.08
2019-03-09T16:38:25.527Z,98565.69
2019-03-09T16:41:01.281Z,98556.97
2019-03-09T16:43:37.163Z,98550.56
2019-03-09T16:46:13.389Z,98555.66
2019-03-09T16:48:49.171Z,98552.27
2019-03-09T16:51:25.329Z,98545.27
2019-03-09T16:54:01.199Z,98542.97
2019-03-09T16:56:38.174Z,98537.05
2019-03-09T16:59:13.874Z,98529.78
2019-03-09T17:01:49.778Z,98534.03
2019-03-09T17:04:25.644Z,98539.59
2019-03-09T17:07:01.490Z,98557.25
2019-03-09T17:09:37.246Z,98551.19
2019-03-09T17:12:13.089Z,98544.92
2019-03-09T17:14:48.843Z,98567.17
2019-03-09T17:17:24.705Z,98562.20
2019-03-09T17:20:00.658Z,98573.22
2019-03-09T17:22:38.313Z,98582.28
2019-03-09T17:25:15.561Z,98579.86
2019-03-09T17:27:52.276Z,98580.35
2019-03-09T17:30:27.995Z,98570.41
2019-03-09T17:33:03.744Z,98566.91
2019-03-09T17:35:39.528Z,98570.78
2019-03-09T17:38:15.291Z,98559.41
2019-03-09T17:40:51.117Z,98573.59
2019-03-09T17:43:26.895Z,98558.47
2019-03-09T17:46:02.675Z,98545.87
2019-03-09T17:48:38.526Z,98548.67
2019-03-09T17:51:14.394Z,98538.98
2019-03-09T17:53:50.168Z,98543.59
2019-03-09T17:56:26.092Z,98548.91
2019-03-09T17:59:01.947Z,98549.97
2019-03-09T18:01:37.677Z,98561.20
2019-03-09T18:04:13.565Z,98591.66
2019-03-09T18:06:49.410Z,98680.39
2019-03-09T18:09:25.247Z,98669.82
2019-03-09T18:12:01.002Z,98690.02
2019-03-09T18:14:36.756Z,98695.86
2019-03-09T18:17:12.480Z,98687.80
2019-03-09T18:19:48.359Z,98704.42
2019-03-09T18:22:24.051Z,98711.45
2019-03-09T18:24:59.886Z,98712.58
2019-03-09T18:27:35.592Z,98703.36
2019-03-09T18:30:12.283Z,98701.83
2019-03-09T18:32:48.035Z,98699.19
2019-03-09T18:35:23.822Z,98684.16
2019-03-09T18:37:59.569Z,98684.07
2019-03-09T18:40:35.377Z,98661.30
2019-03-09T18:43:11.092Z,98629.88
2019-03-09T18:45:48.226Z,98623.36
2019-03-09T18:48:23.920Z,98615.03
2019-03-09T18:50:59.667Z,98610.98
2019-03-09T18:53:35.426Z,98604.84
2019-03-09T18:56:11.176Z,98595.46
2019-03-09T18:58:47.004Z,98588.72
2019-03-09T19:01:22.811Z,98574.76
2019-03-09T19:03:58.606Z,98569.55
2019-03-09T19:06:34.394Z,98573.70
2019-03-09T19:09:10.152Z,98574.44
2019-03-09T19:11:47.078Z,98564.53
2019-03-09T19:14:22.840Z,98554.80
2019-03-09T19:16:59.298Z,98573.16
2019-03-09T19:19:35.010Z,98560.78
2019-03-09T19:22:10.771Z,98561.06
2019-03-09T19:24:47.532Z,98551.05
2019-03-09T19:27:23.293Z,98536.30
2019-03-09T19:29:59.042Z,98529.39
2019-03-09T19:32:34.796Z,98527.08
2019-03-09T19:35:10.679Z,98515.98
2019-03-09T19:37:46.454Z,98513.23
2019-03-09T19:40:22.753Z,98509.23
2019-03-09T19:42:59.478Z,98496.36
2019-03-09T19:45:35.270Z,98490.70
2019-03-09T19:48:11.085Z,98477.20
2019-03-09T19:50:48.417Z,98471.99
2019-03-09T19:53:27.352Z,98473.80
2019-03-09T19:56:03.182Z,98464.48
2019-03-09T19:58:49.421Z,98461.56
2019-03-09T20:01:27.016Z,98464.56
2019-03-09T20:04:07.905Z,98457.59
2019-03-09T20:06:44.647Z,98450.44
2019-03-09T20:09:20.467Z,98434.66
2019-03-09T20:11:56.238Z,98425.21
2019-03-09T20:14:31.990Z,98424.22
2019-03-09T20:17:08.311Z,98426.95
2019-03-09T20:19:44.168Z,98413.38
2019-03-09T20:22:19.913Z,98407.48
2019-03-09T20:24:55.780Z,98399.02
2019-03-09T20:27:31.627Z,98393.81
2019-03-09T20:30:10.447Z,98385.18
2019-03-09T20:32:46.715Z,98391.70
2019-03-09T20:35:22.568Z,98388.62
2019-03-09T20:37:58.430Z,98386.77
2019-03-09T20:40:34.270Z,98380.86
2019-03-09T20:43:10.280Z,98376.61
2019-03-09T20:45:47.623Z,98375.38
2019-03-09T20:48:23.476Z,98368.73
2019-03-09T20:51:00.355Z,98356.66
2019-03-09T20:53:36.099Z,98342.95
2019-03-09T20:56:11.964Z,98340.81
2019-03-09T20:58:47.817Z,98327.73
2019-03-09T21:01:23.679Z,98320.88
2019-03-09T21:04:01.210Z,98313.82
2019-03-09T21:06:37.128Z,98301.44
2019-03-09T21:09:12.976Z,98295.06
2019-03-09T21:11:48.716Z,98296.79
2019-03-09T21:14:25.111Z,98291.99
2019-03-09T21:17:01.053Z,98280.65
2019-03-09T21:19:38.127Z,98277.03
2019-03-09T21:22:13.995Z,98274.77
2019-03-09T21:24:50.347Z,98259.45
2019-03-09T21:27:26.197Z,98259.85
2019-03-09T21:30:02.259Z,98253.22
2019-03-09T21:32:41.617Z,98269.50
2019-03-09T21:35:17.443Z,98275.33
2019-03-09T21:37:53.197Z,98253.67
2019-03-09T21:40:29.062Z,98270.31
2019-03-09T21:43:12.700Z,98265.13
2019-03-09T21:45:48.561Z,98269.11
2019-03-09T21:48:24.407Z,98258.15
2019-03-09T21:51:01.911Z,98267.56
2019-03-09T21:53:37.648Z,98248.77
2019-03-09T21:56:13.491Z,98242.38
2019-03-09T21:58:49.251Z,98240.91
2019-03-09T22:01:25.111Z,98254.07
2019-03-09T22:04:00.851Z,98238.75
2019-03-09T22:06:36.722Z,98247.55
2019-03-09T22:09:12.572Z,98256.37
2019-03-09T22:11:48.417Z,98256.62
2019-03-09T22:14:24.162Z,98260.46
2019-03-09T22:17:00.014Z,98269.50
2019-03-09T22:19:35.771Z,98267.38
2019-03-09T22:22:12.039Z,98263.64
2019-03-09T22:24:48.917Z,98261.47
2019-03-09T22:27:24.763Z,98240.73
2019-03-09T22:30:00.621Z,98242.16
2019-03-09T22:32:37.707Z,98250.72
2019-03-09T22:35:14.220Z,98230.33
2019-03-09T22:37:50.044Z,98247.72
2019-03-09T22:40:25.882Z,98266.64
2019-03-09T22:43:01.751Z,98243.73
2019-03-09T22:45:37.606Z,98256.27
2019-03-09T22:48:13.433Z,98253.52
2019-03-09T22:50:49.189Z,98265.31
2019-03-09T22:53:25.055Z,98276.03
2019-03-09T22:56:01.930Z,98325.27
2019-03-09T22:58:37.777Z,98463.53
2019-03-09T23:01:13.745Z,98587.86
2019-03-09T23:03:51.022Z,98587.86
2019-03-09T23:06:26.772Z,98471.06
2019-03-09T23:09:04.171Z,98470.66
2019-03-09T23:11:41.549Z,98450.68
2019-03-09T23:14:17.307Z,98400.22
2019-03-09T23:16:53.053Z,98439.67
2019-03-09T23:19:28.922Z,98501.98
2019-03-09T23:22:04.761Z,98454.24
2019-03-09T23:24:40.522Z,98477.60
2019-03-09T23:27:16.581Z,98473.73
2019-03-09T23:29:53.448Z,98478.31
2019-03-09T23:32:29.319Z,98489.84
2019-03-09T23:35:05.163Z,98491.23
2019-03-09T23:37:41.018Z,98480.26
2019-03-09T23:40:19.020Z,98488.22
2019-03-09T23:42:54.887Z,98500.77
2019-03-09T23:45:30.725Z,98510.78
2019-03-09T23:48:06.578Z,98520.32
2019-03-09T23:50:42.331Z,98520.42
2019-03-09T23:53:18.183Z,98511.15
2019-03-09T23:55:54.042Z,98527.94
2019-03-09T23:58:29.900Z,98539.52
